Overview Statistics Trail Chart Weather Telemetry Raw packets
 

This is the latest recevied weather packets stored in our database for station/object HS3MXC-2. If no packets are shown the sender has not sent any weather packets the latest 10 day(s).

<< 39 40 41 42 43 44 45 >>
Time Temp. Humidity Pressure Rain* Wind** Luminosity Snow
1777371098 28.33° C 57% 992.5 hPa - - - -
1777370485 28.33° C 56% 992.8 hPa - - - -
1777370178 28.33° C 57% 992.7 hPa - - - -
1777369867 28.33° C 55% 992.6 hPa - - - -
1777369247 27.78° C 53% 993.5 hPa - - - -
1777368940 27.78° C 53% 993.5 hPa - - - -
1777368633 27.22° C 50% 993.2 hPa - - - -
1777368325 25.56° C 51% 993.2 hPa - - - -
1777367994 26.11° C 54% 993.3 hPa - - - -
1777367685 25.56° C 53% 993.2 hPa - - - -
1777367377 26.11° C 54% 993 hPa - - - -
1777367070 26.67° C 55% 992.8 hPa - - - -
1777366762 26.11° C 54% 993 hPa - - - -
1777366455 26.67° C 55% 993.3 hPa - - - -
1777366146 26.11° C 53% 993.5 hPa - - - -
1777365839 26.11° C 52% 993.8 hPa - - - -
1777365530 26.67° C 52% 993.9 hPa - - - -
1777365222 26.67° C 54% 994.4 hPa - - - -
1777364915 27.78° C 59% 994.7 hPa - - - -
1777364608 28.89° C 64% 994.7 hPa - - - -
1777364302 28.89° C 62% 994.7 hPa - - - -
1777363989 28.89° C 62% 994.4 hPa - - - -
1777363682 28.89° C 60% 993.8 hPa - - - -
1777363383 28.89° C 61% 993.5 hPa - - - -
1777360744 25° C 48% 992.1 hPa - - - -

* Rain since midnight (hover to see other rain measurements)
** Current wind speed in m/s (hover to see current wind gust speed)